Barrett, MN

10:46 PM CDT on May 05, 2015 (GMT -0500)
Hoffman MN | | Change Station
CLOSE
Current Station
Personal Weather Station
Location: Hoffman, MN
Elevation: 1240 ft
Nearby Weather Stations

Elev 1240 ft 45.83 °N, 95.78 °W | Updated 16 seconds ago

Overcast
Overcast
61.2 °F
Feels Like 61.2 °F
N
10.0
Wind Variable Wind from South
Gusts 11.0 mph

Today
High -- | Low -- °F
--% Chance of Precip.
Yesterday
High -- | Low -- °F
Precip. -- in
6:05 AM 8:36 PM
Waning Gibbous, 96% visible
Pressure 30.04 in
Visibility 10.0 miles
Clouds Overcast 2100 ft
Dew Point 55 °F
Humidity 81%
Rainfall 0.00 in
Snow Depth Not available.
UV 0 out of 12
Pollen 10.90 out of 12
Air Quality Not available.
Flu Activity Sporadic
METAR KY63 060333Z AUTO 14013G20KT 10SM OVC021 16/12 A3004 RMK AO2 T01640117

More Conditions Fewer Conditions

Pressure 30.04 in
Visibility 10.0 miles
Clouds Overcast 2100 ft
Dew Point 55 °F
Humidity 81%
Rainfall 0.00 in
Snow Depth Not available.
UV 0 out of 12
Pollen 10.90 out of 12
Air Quality Not available.
Flu Activity Sporadic
METAR KY63 060333Z AUTO 14013G20KT 10SM OVC021 16/12 A3004 RMK AO2 T01640117

More Conditions Fewer Conditions

10-Day Weather Forecast

Almanac

Astronomy

May. 05, 2015 Rise Set
Actual Time
Civil Twilight
Nautical Twilight
Astronomical Twilight
Moon
Length of Visible Light
Length of Day
Tomorrow will be .
, % of the Moon is Illuminated

Today's Extremes

State Highs State Lows

Community

WunderPhotos

Upload Photos

1,819,064 photos uploaded!

WunderBlogs® & News

Nearby

Air Quality

  Air Quality AQ Index Pollutant
Not available.

Snow Depth

Station Depth Elevation

Earthquake Activity

City Distance Mag. Time & Date
Minimum magnitude displayed is 2.5.

Coastal Water Temperatures

Place Temperature

Stations

Nearby Weather Stations

Station Location Temp. Windchill Dew Point Humidity Wind Precip. Elev Updated Type